UKWW/VIN METAR and TAF weather

Enter ICAO airport designator
Station Type Date Time Source
UKWW METAR 2021/08/01 16:30 UTC NOAA

UKWW 011630Z 27002MPS 200V300 9999 NSC 28/18 Q1009 R31/0///65 NOSIG


Station Type Date Time Source
UKWW Decoded METAR 2021/08/01 16:30 UTC NOAA

Station name not available
Aug 01, 2021 - 12:30 PM EDT / 2021.08.01 1630 UTC
Wind: from the W (270 degrees) at 4 MPH (4 KT) (direction variable):0
Visibility: greater than 7 mile(s):0
Temperature: 82 F (28 C)
Dew Point: 64 F (18 C)
Relative Humidity: 54%
Pressure (altimeter): 29.80 in. Hg (1009 hPa)
ob: UKWW 011630Z 27002MPS 200V300 9999 NSC 28/18 Q1009 R31/0///65 NOSIG
cycle: 16

Station Type Date Time Source
UKWW TAF 2010/03/21 10:45 UTC NOAA

TAF UKWW 211045Z 2112/2212 24005G10MPS 9999 SCT020 BKN070
TEMPO 2115/2207 1400 -SHRA BR SCT004 BKN007CB
FM220700 34007G12MPS 9999 SCT015 BKN100 TX11/2112Z TN01/2204Z

Example: see airport list